Tiempo atmosférico en la estación meteorológica de Zumarraga, Gipuzkoa (420 m.)



Fecha
DESCASC
Temp. máxima en grados centígrados (hora)
DESCASC
Temp. mínima en grados centígrados (hora)
DESCASC
Temp. media en grados centígrados
DESCASC
Racha de viento máxima en m/sg (hora)
DESCASC
Velocidad máxima media en intervalos de 10 minutos(hora)
DESCASC
Precipitaciones diarias en mm
DESCASC
Precipitaciones de 00:00 a 06:00 en mm
DESCASC
Precipitaciones de 06:00 a 12:00 en mm
DESCASC
Precipitaciones de 12:00 a 18:00 en mm
DESCASC
Precipitaciones de 18:00 a 24:00 en mm
DESCASC
08-12-2019 9.4 (17:30) 3.6 (04:30) 6.5 11.11 (20:20) 5 (20:20) 8.2 0 0.3 7.9 0
07-12-2019 12.8 (13:30) 2.8 (07:30) 7.8 2.5 (02:10) 0.83 (13:40) 0 0 0 0 0
06-12-2019 11.7 (15:30) 0.7 (07:10) 6.2 3.61 (13:30) 1.39 (14:00) 0 0 0 0 0
05-12-2019 9.5 (15:30) 3 (00:00) 6.3 5.83 (05:20) 3.33 (05:20) 0 0 0 0 0
04-12-2019 8.9 (13:10) -1.5 (-00:0) 3.7 8.89 (16:30) 5 (16:30) 0.3 0 0.1 0 0.2
03-12-2019 4.4 (14:30) -0.3 (00:00) 2.1 4.17 (01:20) 1.39 (02:00) 1.4 1.4 0 0 0
02-12-2019 6.7 (04:30) 3.1 (00:00) 4.9 8.61 (16:00) 4.17 (17:00) 4 0.1 2.8 1.1 0
01-12-2019 11.7 (13:10) 2.2 (00:00) 6.9 5.28 (12:30) 3.06 (15:50) 8.8 0.1 0 0.1 8.6
30-11-2019 13.2 (08:20) 3.6 (00:00) 8.4 9.44 (09:20) 4.17 (09:20) 18.2 0.1 0 17.5 0.6
29-11-2019 13.2 (13:00) 6.4 (00:00) 9.8 7.5 (00:50) 4.72 (00:50) 1 1 0 0 0
28-11-2019 13 (16:10) 8.7 (00:00) 10.8 9.72 (17:50) 3.61 (05:00) 3.8 0.1 0 2.1 1.6
27-11-2019 13.9 (00:10) 7.5 (00:00) 10.7 11.94 (15:50) 3.33 (03:50) 2.3 0 0 1.8 0.5
26-11-2019 16.8 (15:00) 8 (00:00) 12.4 17.22 (20:10) 3.33 (20:20) 0.1 0 0 0 0.1
25-11-2019 15.2 (14:00) 7.1 (00:00) 11.1 5.83 (14:20) 3.06 (14:20) 0.1 0.1 0 0 0
24-11-2019 9 (20:20) 5.1 (00:00) 7 9.17 (00:20) 4.44 (00:30) 17.2 12.1 2.8 0 2.3
23-11-2019 10.8 (00:10) 5.6 (00:00) 8.2 21.39 (08:50) 10.56 (08:20) 44 7.8 19.5 13.3 3.4
22-11-2019 11.4 (21:50) 5.2 (00:00) 8.3 20.56 (23:20) 6.11 (11:30) 2.3 0 0 1.5 0.8
21-11-2019 10.4 (12:20) 4.3 (00:00) 7.3 10.83 (11:40) 2.78 (05:30) 0 0 0 0 0
20-11-2019 8.6 (15:20) 1.6 (00:00) 5.1 8.89 (12:30) 3.89 (14:10) 0 0 0 0 0
19-11-2019 8.3 (13:20) 0.4 (00:00) 4.4 3.61 (23:50) 1.11 (12:20) 0.1 0 0.1 0 0
18-11-2019 6.4 (12:50) 1.6 (00:00) 4 10.56 (09:10) 5 (09:10) 11.1 7.2 3.2 0.1 0.6
17-11-2019 7.3 (17:00) 3.3 (00:00) 5.3 8.33 (15:10) 4.44 (15:20) 12.1 2.8 3.3 1.5 4.5
16-11-2019 4.3 (16:00) -0.5 (-00:0) 1.9 9.17 (18:50) 4.44 (17:20) 20.1 0.1 5.8 11.6 2.6
15-11-2019 6.4 (14:00) 0.8 (00:00) 3.6 9.72 (11:20) 4.72 (10:10) 14.5 1.2 9.3 3.3 0.7
14-11-2019 8.5 (13:30) 1 (00:00) 4.8 12.78 (02:50) 7.22 (02:40) 20.5 19.9 0.5 0 0.1
13-11-2019 9.8 (12:50) 5.4 (00:00) 7.6 10.83 (12:20) 5 (12:20) 13.3 3.9 9 0.4 0
12-11-2019 9.5 (15:30) 4.2 (00:00) 6.8 11.11 (01:10) 5.28 (13:20) 5.2 2.2 1.5 0 1.5
11-11-2019 8.1 (14:30) 1.9 (01:00) 5 18.89 (18:00) 6.94 (14:50) 11.1 2 3.4 4.9 0.8

Gráficas

Temp. máximas Temp. mínimas Temp. medias Precipitaciones Rachas de viento máximas Velocidades máximas media en intervalos de 10 minutos

Datos horarios

Fecha y hora oficial Temperatura (ºC) Velocidad del viento (km/h) Dirección del viento Racha (km/h) Dirección de racha Precipitación (mm) Presión (hPa) Tendencia (hPa) Humedad (%)
2019-12-10 23:00:00 6.9 0 Calma 8 Sudoeste 0 970.6 -1.7 79
2019-12-10 22:00:00 6.1 0 Calma 9 Oeste 0 971.4 -1.1 88
2019-12-10 21:00:00 6 2 Oeste 12 Sudoeste 0 971.8 -0.7 87
2019-12-10 20:00:00 7 2 Sudoeste 14 Sudoeste 0 972.3 -0.4 83
2019-12-10 19:00:00 6.8 2 Sudoeste 11 Sudoeste 0 972.5 -0.7 88
2019-12-10 18:00:00 7.7 2 Sudoeste 10 Sudoeste 0 972.5 -1.2 85
2019-12-10 17:00:00 9.1 0 Calma 8 Sudoeste 0 972.7 -2 85
2019-12-10 16:00:00 10 0 Calma 5 Oeste 0 973.2 -2.6 85
2019-12-10 15:00:00 9.4 0 Calma 4 Sudeste 0 973.7 -3.3 83
2019-12-10 14:00:00 9.1 2 Sudeste 6 Sudeste 0 974.7 -3.4 83
2019-12-10 13:00:00 9.1 0 Calma 6 Este 0 975.8 -2 87
2019-12-10 12:00:00 7.2 0 Calma 2 Sudeste 0 977 -1.2 99
2019-12-10 11:00:00 5 0 Calma 4 Sudeste 0 978.1 -0.3 99
2019-12-10 10:00:00 4.3 0 Calma 0 Calma 0.1 977.8 -0.7 99
2019-12-10 09:00:00 3.6 0 Calma 2 Sudeste 0 978.2 -0.8 99
2019-12-10 08:00:00 4.7 0 Calma 4 Oeste 0 978.4 -0.8 99
2019-12-10 07:00:00 4.5 0 Calma 7 Sudoeste 0 978.5 -1.4 99
2019-12-10 06:00:00 4.4 0 Calma 4 Noroeste 0 979 -1.3 99
2019-12-10 05:00:00 4.6 0 Calma 7 Oeste 0 979.2 -1 99
2019-12-10 04:00:00 5.4 0 Calma 9 Sur 0 979.9 -0.8 99
2019-12-10 03:00:00 6.1 3 Oeste 12 Oeste 0 980.3 -0.3 99
2019-12-10 02:00:00 6.2 4 Oeste 13 Oeste 0.5 980.2 -0.5 99
2019-12-10 01:00:00 6.3 0 Calma 10 Oeste 0.2 980.7 0 99
2019-12-10 00:00:00 6.7 6 Oeste 19 Oeste 0.2 980.6 0.1 98
2019-12-09 23:00:00 7 5 Oeste 27 Oeste 0 980.7 0.7 92
2019-12-09 22:00:00 7.5 14 Oeste 39 Noroeste 0.1 980.7 0.9 86
2019-12-09 21:00:00 7.1 9 Oeste 26 Noroeste 0 980.5 1.3 86
2019-12-09 20:00:00 7.7 13 Oeste 26 Oeste 0 980 1.5 82
2019-12-09 19:00:00 7.7 10 Noroeste 30 Oeste 0 979.8 1.7 80
2019-12-09 18:00:00 7.8 13 Oeste 26 Oeste 0 979.2 1.4 76
2019-12-09 17:00:00 8 18 Oeste 32 Noroeste 0 978.5 1 74
2019-12-09 16:00:00 8.3 20 Noroeste 39 Oeste 0 978.1 0.8 77
2019-12-09 15:00:00 8.1 21 Noroeste 50 Oeste 0.3 977.8 0.6 83
2019-12-09 14:00:00 7.4 14 Oeste 40 Noroeste 2.2 977.5 0.6 97
2019-12-09 13:00:00 7.7 17 Oeste 55 Oeste 0.4 977.3 1 91
2019-12-09 12:00:00 7.3 23 Oeste 52 Oeste 1.5 977.2 1.7 97
2019-12-09 11:00:00 7.3 25 Oeste 51 Noroeste 1.7 976.9 1.8 94
2019-12-09 10:00:00 7 30 Oeste 67 Oeste 2.1 976.3 1.3 95
2019-12-09 09:00:00 7.6 25 Oeste 45 Oeste 0.1 975.5 0.7 88
2019-12-09 08:00:00 7 14 Oeste 33 Noroeste 0.5 975.1 0 93
2019-12-09 07:00:00 7.4 14 Oeste 27 Oeste 0.1 975 -0.1 83
2019-12-09 06:00:00 7.3 15 Oeste 31 Noroeste 0 974.8 0.2 85
2019-12-09 05:00:00 7 13 Oeste 22 Noroeste 0 975.1 0.7 92
2019-12-09 04:00:00 5.5 3 Oeste 10 Oeste 0 975.1 0.6 99
2019-12-09 03:00:00 4.9 3 Oeste 11 Oeste 0 974.6 0.5 99
2019-12-09 02:00:00 4.7 0 Calma 7 Sudoeste 0 974.4 0 98
2019-12-09 01:00:00 5.7 0 Calma 3 Sudoeste 0 974.5 0 94
2019-12-09 00:00:00 7 0 Calma 13 Oeste 0 974.1 0 90
2019-12-08 23:00:00 8.2 3 Noroeste 13 Oeste 0 974.4 0.5 92
2019-12-08 22:00:00 8.3 8 Oeste 22 Oeste 0 974.5 1.1 90
2019-12-08 21:00:00 8.8 7 Noroeste 40 Oeste 0 974.1 1.4 86
2019-12-08 20:00:00 8.7 9 Oeste 26 Oeste 0 973.9 2.3 87
2019-12-08 19:00:00 8.6 8 Oeste 38 Oeste 0 973.4 2.3 96
2019-12-08 18:00:00 9.1 17 Oeste 31 Oeste 1.4 972.7 2.1 99
2019-12-08 17:00:00 9.2 4 Oeste 10 Oeste 0.7 971.6 0.7 99
2019-12-08 16:00:00 8.8 0 Calma 0 Calma 1.8 971.1 -0.3 99
2019-12-08 15:00:00 8.4 0 Calma 6 Sudeste 1.6 970.6 -1 99
2019-12-08 14:00:00 8.6 2 Sudeste 7 Este 1.9 970.9 -1 99
2019-12-08 13:00:00 8.6 0 Calma 0 Calma 0.5 971.4 -0.2 98
2019-12-08 12:00:00 8.4 0 Calma 5 Sudeste 0.3 971.6 0.4 95
2019-12-08 11:00:00 8.2 0 Calma 6 Sur 0 971.9 0.6 90
2019-12-08 10:00:00 7.2 0 Calma 10 Sudoeste 0 971.6 0.6 92
2019-12-08 09:00:00 6.2 0 Calma 6 Sudeste 0 971.2 0.5 92
2019-12-08 08:00:00 6.3 0 Calma 6 Sudeste 0 971.3 0.2 85
2019-12-08 07:00:00 5.2 0 Calma 10 Oeste 0 971 -0.6 99
2019-12-08 06:00:00 5.1 0 Calma 6 Oeste 0 970.7 -1.2 99
2019-12-08 05:00:00 4.5 0 Calma 13 Sudoeste 0 971.1 -1.1 99
2019-12-08 04:00:00 4.3 0 Calma 8 Sudoeste 0 971.6 -1.1 99
2019-12-08 03:00:00 4.5 0 Calma 0 Calma 0 971.9 -1.1 99
2019-12-08 02:00:00 5.3 0 Calma 3 Noroeste 0 972.2 -0.7 99
2019-12-08 01:00:00 5.6 0 Calma 7 Sudoeste 0 972.7 -0.2 99
2019-12-08 00:00:00 6.1 0 Calma 8 Sudoeste 0 973 0 99
2019-12-07 23:00:00 6.1 0 Calma 5 Sudoeste 0 972.9 -0.3 97
2019-12-07 22:00:00 6.5 0 Calma 6 Sudoeste 0 972.9 0.1 96
2019-12-07 21:00:00 7.2 0 Calma 5 Sudoeste 0 973 0.5 91
2019-12-07 20:00:00 8 0 Calma 2 Sudeste 0 973.2 1.5 88
2019-12-07 19:00:00 8.9 0 Calma 4 Sudoeste 0 972.8 1.2 87
2019-12-07 18:00:00 8.4 0 Calma 5 Oeste 0 972.5 0.9 86
2019-12-07 17:00:00 10.3 0 Calma 4 Oeste 0 971.7 -0.2 76
2019-12-07 16:00:00 11.3 0 Calma 5 Oeste 0 971.6 -1 70
2019-12-07 15:00:00 12 0 Calma 4 Sudeste 0 971.6 -1.6 67
2019-12-07 14:00:00 12 2 Este 6 Este 0 971.9 -1.6 66
2019-12-07 13:00:00 11.9 0 Calma 6 Este 0 972.6 -0.8 62
2019-12-07 12:00:00 9.7 0 Calma 4 Este 0 973.2 0.2 76
2019-12-07 11:00:00 7.5 0 Calma 6 Este 0 973.5 0.8 94
2019-12-07 10:00:00 5.4 0 Calma 2 Oeste 0 973.4 1.2 99
2019-12-07 09:00:00 3.5 0 Calma 0 Calma 0 973 1.1 99
2019-12-07 08:00:00 3.1 0 Calma 0 Calma 0 972.7 1.1 99
2019-12-07 07:00:00 3.3 0 Calma 3 Sudoeste 0 972.2 0.3 99
2019-12-07 06:00:00 3.9 0 Calma 0 Calma 0 971.9 -0.1 99
2019-12-07 05:00:00 4.5 0 Calma 5 Sudoeste 0 971.6 -0.7 99
2019-12-07 04:00:00 4.7 0 Calma 0 Calma 0 971.9 -0.7 97
2019-12-07 03:00:00 5.3 0 Calma 9 Sudoeste 0 972 -1 96
2019-12-07 02:00:00 5.8 0 Calma 4 Sudoeste 0 972.3 -0.1 95
2019-12-07 01:00:00 6.1 0 Calma 5 Sudoeste 0 972.6 0.6 95
2019-12-07 00:00:00 6 0 Calma 6 Oeste 0 973 1.4 96
2019-12-06 23:00:00 5.5 0 Calma 8 Sudoeste 0 972.4 1.1 95
2019-12-06 22:00:00 5.5 0 Calma 8 Oeste 0 972 0.9 95
2019-12-06 21:00:00 5.6 0 Calma 5 Sudoeste 0 971.6 0.8 92
2019-12-06 20:00:00 6.7 0 Calma 7 Sudoeste 0 971.3 0.9 88
2019-12-06 19:00:00 7 0 Calma 8 Sudoeste 0 971.1 0.9 88
2019-12-06 18:00:00 9 0 Calma 5 Sudoeste 0 970.8 0.3 79
2019-12-06 17:00:00 10.1 0 Calma 0 Calma 0 970.4 -0.6 72
2019-12-06 16:00:00 11 0 Calma 4 Sudeste 0 970.2 -1.6 68
2019-12-06 15:00:00 11.3 0 Calma 10 Este 0 970.5 -1.9 64
2019-12-06 14:00:00 11.1 5 Este 13 Sudeste 0 971 -1.9 63
2019-12-06 13:00:00 10.5 0 Calma 9 Este 0 971.8 -0.9 67
2019-12-06 12:00:00 8 0 Calma 3 Este 0 972.4 -0.1 92
2019-12-06 11:00:00 4.9 0 Calma 0 Calma 0 972.9 0.5 99
2019-12-06 10:00:00 2.8 0 Calma 0 Calma 0 972.7 0.4 99
2019-12-06 09:00:00 1.2 0 Calma 0 Calma 0 972.5 0.4 99
2019-12-06 08:00:00 0.9 0 Calma 6 Sudeste 0 972.4 0 99
2019-12-06 07:00:00 0.8 0 Calma 5 Oeste 0 972.3 -0.4 99
2019-12-06 06:00:00 1.3 0 Calma 5 Sudeste 0 972.1 -0.8 99
2019-12-06 05:00:00 2.4 0 Calma 4 Sudoeste 0 972.4 -0.4 99
2019-12-06 04:00:00 2.4 0 Calma -- -- -- 972.7 -0.2 99
2019-12-06 03:00:00 2.4 0 Calma 5 Sudoeste 0 972.9 -0.1 99
2019-12-06 02:00:00 2.4 0 Calma 10 Sudoeste 0 972.8 -0.4 99
2019-12-06 01:00:00 2.5 0 Calma 7 Sudoeste 0 972.9 -0.7 99
2019-12-06 00:00:00 3.1 0 Calma 4 Sudoeste 0 973 -0.5 99
2019-12-05 23:00:00 4.1 0 Calma 3 Sudoeste 0 973.2 -0.3 99
2019-12-05 22:00:00 4.4 0 Calma 5 Sudoeste 0 973.6 0.6 97
2019-12-05 21:00:00 6.1 0 Calma 6 Oeste 0 973.5 1.2 94
2019-12-05 20:00:00 6.4 0 Calma 10 Oeste 0 973.5 1.7 94
2019-12-05 19:00:00 6.9 2 Noroeste 11 Norte 0 973 1.6 91
2019-12-05 18:00:00 7.2 2 Noroeste 14 Noroeste 0 972.3 0.8 88
2019-12-05 17:00:00 8.9 5 Noroeste 16 Oeste 0 971.8 0.1 81
2019-12-05 16:00:00 9.4 4 Norte 17 Oeste 0 971.4 -0.3 72
2019-12-05 15:00:00 9.3 4 Noroeste 19 Norte 0 971.5 -0.7 70
2019-12-05 14:00:00 9 4 Noroeste 15 Oeste 0 971.7 -0.2 76
2019-12-05 13:00:00 8.9 5 Oeste 14 Oeste 0 971.7 0.3 79
2019-12-05 12:00:00 8.4 3 Oeste 15 Oeste 0 972.2 1.1 82
2019-12-05 11:00:00 7.8 4 Oeste 12 Oeste 0 971.9 1.5 85
2019-12-05 10:00:00 6.5 0 Calma 12 Noroeste 0 971.4 1.8 91
2019-12-05 09:00:00 5.5 4 Oeste 13 Oeste 0 971.1 2 97
2019-12-05 08:00:00 5.5 2 Oeste 12 Oeste 0 970.4 1.8 97
2019-12-05 07:00:00 5.3 2 Oeste 13 Noroeste 0 969.6 1.4 96
2019-12-05 06:00:00 5.3 7 Noroeste 21 Noroeste 0 969.1 1.6 96
2019-12-05 05:00:00 5.3 6 Noroeste 18 Noroeste 0 968.6 1.1 95
2019-12-05 04:00:00 5.3 3 Noroeste 11 Noroeste 0 968.2 1 98
2019-12-05 03:00:00 4.9 0 Calma 4 Oeste 0 967.5 1.3 99
2019-12-05 02:00:00 4.8 0 Calma 9 Sudeste 0 967.5 1.4 98
2019-12-05 01:00:00 4.9 0 Calma 19 Oeste 0 967.2 1.7 97
2019-12-05 00:00:00 4.8 8 Oeste 19 Oeste 0 966.2 1.1 97
2019-12-04 23:00:00 4.8 6 Oeste 19 Noroeste 0 966.1 1.3 97
2019-12-04 22:00:00 5 4 Noroeste 11 Norte 0.1 965.5 1.1 99
2019-12-04 21:00:00 5.5 2 Norte 17 Noroeste 0.1 965.1 0.9 98
2019-12-04 20:00:00 6 8 Oeste 23 Oeste 0 964.8 1.1 97
2019-12-04 19:00:00 6.4 13 Oeste 22 Noroeste 0 964.4 1.6 89
2019-12-04 18:00:00 6.6 9 Oeste 25 Oeste 0 964.2 1.4 85
2019-12-04 17:00:00 6.6 14 Oeste 32 Noroeste 0 963.7 1.3 83
2019-12-04 16:00:00 7.8 15 Oeste 26 Oeste 0 962.8 0.6 77
2019-12-04 15:00:00 8.7 13 Oeste 26 Oeste 0 962.8 -0.4 70
2019-12-04 14:00:00 8.6 17 Oeste 28 Oeste 0 962.4 -1.1 68
2019-12-04 13:00:00 8.7 7 Oeste 18 Noroeste 0 962.2 -1.5 74
2019-12-04 12:00:00 5.9 3 Este 7 Este 0 963.2 0.4 97
2019-12-04 11:00:00 4.3 0 Calma 8 Sudoeste 0 963.5 0.7 99
2019-12-04 10:00:00 1.7 0 Calma 8 Sudoeste 0 963.7 1 99
2019-12-04 09:00:00 0.6 0 Calma 7 Sudoeste 0.1 962.8 0.3 99
2019-12-04 08:00:00 0.3 0 Calma 9 Sudoeste 0 962.8 -0.4 99
2019-12-04 07:00:00 0.2 0 Calma 6 Sudeste 0 962.7 -0.9 99
2019-12-04 06:00:00 0.8 0 Calma 6 Sudoeste 0 962.5 -1.7 99
2019-12-04 05:00:00 0.7 0 Calma 3 Oeste 0 963.2 -1.7 99
2019-12-04 04:00:00 0.8 0 Calma 5 Sudoeste 0 963.6 -2.3 99
2019-12-04 03:00:00 0.9 0 Calma 0 Calma 0 964.2 -2.2 99
2019-12-04 02:00:00 -1.3 0 Calma 5 Este 0 964.9 -1.9 99
2019-12-04 01:00:00 -0.8 0 Calma 0 Calma 0 965.9 -0.9 99
2019-12-04 00:00:00 -0.2 0 Calma 4 Este 0 966.4 -0.7 99
2019-12-03 23:00:00 0.1 0 Calma 0 Calma 0 966.8 -0.5 99
2019-12-03 22:00:00 0 0 Calma 2 Oeste 0 966.8 -0.5 99
2019-12-03 21:00:00 0.3 0 Calma -- -- -- 967.1 0.3 99
2019-12-03 20:00:00 0.6 0 Calma 5 Sur 0 967.3 0.1 99
2019-12-03 19:00:00 0.9 0 Calma 6 Sudoeste 0 967.3 0.3 96
2019-12-03 18:00:00 1.9 0 Calma 4 Sur 0 966.8 -0.7 93
2019-12-03 17:00:00 2.8 0 Calma 4 Sudeste 0 967.2 -0.9 88
2019-12-03 16:00:00 3.9 0 Calma 6 Este 0 967 -1.6 79
2019-12-03 15:00:00 3.8 0 Calma 8 Sudeste 0 967.5 -2.2 83
2019-12-03 14:00:00 4 0 Calma 11 Nordeste 0 968.1 -2 78
2019-12-03 13:00:00 3.9 0 Calma 8 Norte 0 968.6 -1.5 88
2019-12-03 12:00:00 3.8 0 Calma 7 Nordeste 0 969.7 -0.4 91
2019-12-03 11:00:00 3.1 0 Calma 10 Noroeste 0 970.1 -0.2 97
2019-12-03 10:00:00 2.6 0 Calma 4 Sudoeste 0 970.1 -0.5 99
2019-12-03 09:00:00 2.4 0 Calma 6 Noroeste 0 970.1 -0.3 98
2019-12-03 08:00:00 2.5 4 Noroeste 11 Oeste 0 970.3 -0.6 95
2019-12-03 07:00:00 2.6 2 Norte 12 Norte 0 970.6 -0.8 95
2019-12-03 06:00:00 2.6 0 Calma 12 Noroeste 0.1 970.4 -1 98
2019-12-03 05:00:00 2.7 0 Calma 5 Norte 0.2 970.9 -0.7 98
2019-12-03 04:00:00 2.7 0 Calma 9 Norte 0.3 971.4 -0.5 96
2019-12-03 03:00:00 2.7 2 Norte 9 Noroeste 0.4 971.4 -0.9 96
2019-12-03 02:00:00 2.9 5 Oeste 15 Oeste 0.4 971.6 -0.7 95
2019-12-03 01:00:00 3.1 0 Calma 8 Norte 0 971.9 -0.7 94
2019-12-03 00:00:00 3.4 4 Noroeste 19 Noroeste 0 972.3 -0.3 91
2019-12-02 23:00:00 3.3 7 Noroeste 20 Oeste 0 972.3 -0.3 89
2019-12-02 22:00:00 3.5 8 Noroeste 25 Noroeste 0 972.6 0.3 88
2019-12-02 21:00:00 3.5 5 Noroeste 22 Oeste 0 972.6 0.6 93
2019-12-02 20:00:00 3.6 8 Oeste 21 Noroeste 0 972.6 0.9 91
2019-12-02 19:00:00 3.8 7 Oeste 20 Noroeste 0 972.3 1 91
2019-12-02 18:00:00 4.1 11 Noroeste 31 Oeste 0 972 1.2 83
2019-12-02 17:00:00 4.3 15 Noroeste 28 Noroeste 0 971.7 0.9 88
2019-12-02 16:00:00 4.8 13 Noroeste 31 Noroeste 0.1 971.3 0.8 94
2019-12-02 15:00:00 5.1 3 Norte 16 Noroeste 0.3 970.8 0 97
2019-12-02 14:00:00 5.5 8 Norte 23 Norte 0.2 970.8 0.1 97
2019-12-02 13:00:00 6.2 7 Norte 25 Nordeste 0.5 970.5 0.4 96
2019-12-02 12:00:00 6.5 2 Norte 18 Noroeste 0.6 970.8 1.2 96
2019-12-02 11:00:00 6.3 0 Calma 8 Norte 0.6 970.7 1.6 97
2019-12-02 10:00:00 6.3 3 Norte 14 Este 0.8 970.1 1.7 95
2019-12-02 09:00:00 6.5 4 Norte 14 Noroeste 0.2 969.6 1.7 94
2019-12-02 08:00:00 6.3 3 Norte 21 Noroeste 0.3 969.1 1.6 95
2019-12-02 07:00:00 6.6 3 Noroeste 18 Noroeste 0.3 968.4 0.9 94
2019-12-02 06:00:00 6.5 3 Norte 14 Noroeste 0 967.9 1 94
2019-12-02 05:00:00 6.5 0 Calma 15 Sudeste 0 967.5 0.7 96
2019-12-02 04:00:00 6.2 0 Calma 15 Nordeste 0 967.5 1.1 99
2019-12-02 03:00:00 5.4 0 Calma 9 Noroeste 0 966.9 0.6 99
2019-12-02 02:00:00 5.5 0 Calma 14 Sudoeste 0 966.8 0.9 99
2019-12-02 01:00:00 5.3 0 Calma 13 Oeste 0.1 966.4 0.8 99
2019-12-02 00:00:00 5.7 3 Oeste 14 Sudoeste 0.7 966.3 1.3 99
2019-12-01 23:00:00 5.6 4 Oeste 15 Oeste 3.9 965.9 1.8 99
2019-12-01 22:00:00 5.8 8 Oeste 17 Oeste 0.3 965.6 2 99
2019-12-01 21:00:00 6 0 Calma 10 Sudoeste 3.7 965 2 99
2019-12-01 20:00:00 5.9 0 Calma 5 Sudoeste 0 964.1 1.5 96
2019-12-01 19:00:00 6.6 0 Calma 10 Oeste 0 963.6 1.8 92
2019-12-01 18:00:00 7.9 0 Calma 14 Noroeste 0 963 1.2 84
2019-12-01 17:00:00 8.9 0 Calma 13 Oeste 0 962.6 0.7 76
2019-12-01 16:00:00 9.7 8 Oeste 17 Noroeste 0 961.8 -0.1 70
2019-12-01 15:00:00 10 5 Oeste 14 Oeste 0 961.8 -0.2 67
2019-12-01 14:00:00 10.9 0 Calma 10 Oeste 0 961.9 -0.5 70
2019-12-01 13:00:00 10.6 0 Calma 19 Este 0.1 961.9 0 66
2019-12-01 12:00:00 9.1 4 Sudeste 10 Este 0 962 0.7 73
2019-12-01 11:00:00 7.9 6 Este 10 Este 0 962.4 1.3 83
2019-12-01 10:00:00 5.6 4 Sudeste 9 Sudeste 0 961.9 1.4 97
2019-12-01 09:00:00 4.8 0 Calma 0 Calma 0 961.3 0.8 95
2019-12-01 08:00:00 5.3 6 Sudeste 13 Sudeste 0 961.1 0.5 90
2019-12-01 07:00:00 4.2 4 Sudeste 11 Sudeste 0 960.5 -0.5 99
2019-12-01 06:00:00 3.1 0 Calma 12 Este 0 960.5 -0.9 99
2019-12-01 05:00:00 3.7 0 Calma 8 Norte 0 960.6 -1.3 99
2019-12-01 04:00:00 2.9 0 Calma 6 Sudoeste 0 961 -1.6 99
2019-12-01 03:00:00 2.5 0 Calma 2 Sudeste 0 961.4 -1.6 99
2019-12-01 02:00:00 3.1 0 Calma 4 Sudeste 0.1 961.9 -1.3 99
2019-12-01 01:00:00 4.1 0 Calma 0 Calma 0 962.6 -0.9 99
2019-12-01 00:00:00 3.9 0 Calma 2 Sudoeste 0 963 -0.6 99
2019-11-30 23:00:00 4 0 Calma 6 Sudoeste 0 963.2 -0.1 99
2019-11-30 22:00:00 4.4 0 Calma 5 Sudoeste 0 963.5 0 99
2019-11-30 21:00:00 5.1 0 Calma 6 Sudoeste 0 963.6 -0.5 99
2019-11-30 20:00:00 6.1 0 Calma 0 Calma 0 963.3 -0.5 99
2019-11-30 19:00:00 6.6 0 Calma 17 Sudeste 0.6 963.5 -1.1 99
2019-11-30 18:00:00 6.9 2 Sudeste 8 Sudeste 1.5 964.1 -0.1 99
2019-11-30 17:00:00 7.7 0 Calma 6 Oeste 3.3 963.8 -0.5 99
2019-11-30 16:00:00 7.9 0 Calma 9 Oeste 4.4 964.6 0.4 99
2019-11-30 15:00:00 8 0 Calma 30 Oeste 4.9 964.2 -0.4 99
2019-11-30 14:00:00 8.5 15 Oeste 30 Noroeste 2.7 964.3 -0.3 99
2019-11-30 13:00:00 9.3 14 Oeste 30 Noroeste 0.7 964.2 -0.1 97
2019-11-30 12:00:00 11.9 3 Sudeste 31 Sudeste 0 964.6 0.2 72
2019-11-30 11:00:00 11.9 8 Sudeste 29 Sudeste 0 964.6 0.4 70
2019-11-30 10:00:00 12 8 Sudeste 34 Sudeste 0 964.3 -0.4 69
2019-11-30 09:00:00 11.9 8 Sudeste 25 Sudeste 0 964.4 -0.7 71
2019-11-30 08:00:00 12.5 6 Sudeste 28 Sur 0 964.2 -1 70
2019-11-30 07:00:00 10.4 5 Sudeste 15 Sudeste 0 964.7 -1.2 78
2019-11-30 06:00:00 8.6 0 Calma 8 Oeste 0.1 965.1 -1.3 89
2019-11-30 05:00:00 8.1 0 Calma 4 Oeste 0 965.2 -1.9 92
2019-11-30 04:00:00 7.8 0 Calma 11 Sudeste 0 965.9 -2 91
2019-11-30 03:00:00 7.3 0 Calma 13 Sudeste 0 966.4 -2.2 92
2019-11-30 02:00:00 6.8 0 Calma 9 Sudeste 0 967.1 -1.8 97
2019-11-30 01:00:00 6.5 0 Calma 8 Sudeste 0 967.9 -1.1 99
2019-11-30 00:00:00 6.7 0 Calma 4 Sudoeste 0 968.6 -0.7 99
2019-11-29 23:00:00 6.8 0 Calma 0 Calma 0 968.9 -0.5 99
2019-11-29 22:00:00 7 0 Calma 2 Oeste 0 969 -0.3 98
2019-11-29 21:00:00 7 0 Calma 0 Calma 0 969.3 0.1 97
2019-11-29 20:00:00 7.2 0 Calma 0 Calma 0 969.4 0.5 96
2019-11-29 19:00:00 7.6 0 Calma 2 Sudoeste 0 969.3 0.6 93
2019-11-29 18:00:00 8.5 0 Calma 4 Noroeste 0 969.2 0.3 90
2019-11-29 17:00:00 10.6 0 Calma 0 Calma 0 968.9 -0.5 79
2019-11-29 16:00:00 11.2 0 Calma 5 Norte 0 968.7 -1.1 75
2019-11-29 15:00:00 11.3 0 Calma 10 Oeste 0 968.9 -1.3 78
2019-11-29 14:00:00 11.2 2 Oeste 14 Noroeste 0 969.4 -0.6 81
2019-11-29 13:00:00 13.2 4 Oeste 11 Oeste 0 969.8 0.4 72
2019-11-29 12:00:00 12.6 2 Oeste 8 Oeste 0 970.2 1.3 81
2019-11-29 11:00:00 10.6 0 Calma 7 Oeste 0 970 2 97
2019-11-29 10:00:00 9.7 2 Oeste 10 Oeste 0 969.4 2.2 99
2019-11-29 09:00:00 9.7 4 Noroeste 11 Noroeste 0 968.9 2.5 99
2019-11-29 08:00:00 9.6 0 Calma 9 Oeste 0 968 2.1 99
2019-11-29 07:00:00 9.4 0 Calma 11 Noroeste 0 967.2 2 99
2019-11-29 06:00:00 9.5 0 Calma 12 Oeste 0 966.4 2 99
2019-11-29 05:00:00 9.7 7 Oeste 22 Oeste 0 965.9 2.1 99
2019-11-29 04:00:00 9.9 12 Oeste 22 Oeste 0.1 965.2 2 99
2019-11-29 03:00:00 9.9 14 Oeste 25 Oeste 0.3 964.4 2.3 99
2019-11-29 02:00:00 10 14 Oeste 23 Oeste 0.6 963.8 2.1 99
2019-11-29 01:00:00 10.7 17 Oeste 27 Oeste 0 963.2 1.9 95
2019-11-29 00:00:00 10.4 0 Calma 17 Noroeste 0 962.1 0.6 94
2019-11-28 23:00:00 11.1 7 Noroeste 20 Oeste 0.1 961.7 0.3 93
2019-11-28 22:00:00 9.2 2 Nordeste 15 Oeste 0 961.3 0.2 99
2019-11-28 21:00:00 9 0 Calma 6 Norte 0 961.5 0 99
2019-11-28 20:00:00 9 0 Calma 13 Este 0 961.4 0.7 99
2019-11-28 19:00:00 9 0 Calma 23 Oeste 1.5 961.1 1.1 99
2019-11-28 18:00:00 9.9 12 Oeste 35 Noroeste 1.8 961.5 0.8 99
2019-11-28 17:00:00 12.1 7 Noroeste 23 Oeste 0.3 960.7 -0.4 79
2019-11-28 16:00:00 12.8 3 Oeste 33 Noroeste 0 960 -1.6 71
2019-11-28 15:00:00 12.7 2 Sudoeste 29 Noroeste 0 960.7 -1.8 74
2019-11-28 14:00:00 10.7 0 Calma 12 Este 0 961.1 -1.7 89
2019-11-28 13:00:00 10.6 3 Este 7 Nordeste 0 961.6 -0.9 89
2019-11-28 12:00:00 10.4 0 Calma 7 Oeste 0 962.5 0.9 89
2019-11-28 11:00:00 9.5 3 Oeste 16 Oeste 0 962.8 1.8 91
2019-11-28 10:00:00 9.5 9 Oeste 17 Oeste 0 962.5 2.1 85
2019-11-28 09:00:00 9.5 0 Calma 0 Calma 0 961.6 2.1 84
2019-11-28 08:00:00 9 0 Calma 3 Oeste 0 961 1.5 85
2019-11-28 07:00:00 9.1 0 Calma 10 Oeste 0 960.4 1.3 82
2019-11-28 06:00:00 10.2 6 Noroeste 22 Noroeste 0.1 959.5 0.8 73
2019-11-28 05:00:00 10.6 13 Noroeste 32 Oeste 0 959.5 0.6 72
2019-11-28 04:00:00 10.2 9 Noroeste 28 Noroeste 0 959.1 0.1 73
2019-11-28 03:00:00 9.9 6 Noroeste 21 Noroeste 0 958.7 -0.2 75
2019-11-28 02:00:00 9.8 6 Noroeste 21 Sudoeste 0 958.9 0.1 76
2019-11-28 01:00:00 10.1 3 Noroeste 29 Sur 0 959 0.2 73
2019-11-28 00:00:00 9.7 2 Noroeste 20 Sudoeste 0 958.9 -0.1 80
2019-11-27 23:00:00 8.9 3 Noroeste 19 Oeste 0 958.8 -0.3 96
2019-11-27 22:00:00 7.6 0 Calma 4 Oeste 0 958.8 -0.4 99
2019-11-27 21:00:00 8.4 0 Calma 5 Sudeste 0.2 959 0.3 99
2019-11-27 20:00:00 8.5 3 Sudeste 6 Sudeste 0.1 959.1 1.1 99
2019-11-27 19:00:00 8.7 4 Oeste 13 Noroeste 0.2 959.2 1.4 99
2019-11-27 18:00:00 9.1 0 Calma 19 Sudoeste 1.7 958.7 1.5 95
2019-11-27 17:00:00 10.7 4 Sur 27 Oeste 0.1 958 0.7 76
2019-11-27 16:00:00 12 5 Noroeste 43 Oeste 0 957.8 -0.1 63
2019-11-27 15:00:00 12.3 3 Oeste 36 Sudeste 0 957.2 -1.1 61
2019-11-27 14:00:00 12.9 2 Noroeste 21 Sudoeste 0 957.3 -1.1 61
2019-11-27 06:00:00 9.9 10 Noroeste 30 Oeste 0 955.1 1.4 63
2019-11-27 05:00:00 10.4 10 Noroeste 27 Oeste 0 954.7 1.4 60
2019-11-27 04:00:00 11.1 11 Noroeste 38 Noroeste 0 954.2 1.6 61
2019-11-27 03:00:00 11.8 6 Oeste 34 Oeste 0 953.7 1 61
2019-11-27 02:00:00 12.2 4 Noroeste 37 Oeste 0 953.3 0.5 61
2019-11-27 01:00:00 13.1 6 Oeste 35 Sudeste 0 952.6 0.6 62
2019-11-27 00:00:00 13.8 3 Sudoeste 33 Noroeste 0 952.7 0.8 61
2019-11-26 23:00:00 14.4 4 Oeste 42 Oeste 0 952.8 0.9 54
2019-11-26 22:00:00 15.4 9 Oeste 50 Sur 0 952 0.5 53
2019-11-26 21:00:00 15.5 5 Oeste 62 Sur 0 951.9 0.3 57
2019-11-26 20:00:00 16.6 8 Sur 54 Sudoeste 0.1 951.9 -1 56
2019-11-26 19:00:00 13.4 0 Calma 21 Sudeste 0 951.5 -1.3 78
2019-11-26 18:00:00 13.9 6 Sudeste 22 Este 0 951.6 -2.7 70
2019-11-26 17:00:00 14.6 6 Sudeste 28 Sur 0 952.9 -2.6 65
2019-11-26 16:00:00 16.6 5 Sudeste 28 Sur 0 952.8 -4 58
2019-11-26 15:00:00 16.8 4 Sur 32 Sudoeste 0 954.3 -3.1 58
2019-11-26 14:00:00 14.7 7 Sudeste 26 Sur 0 955.5 -2.6 63
2019-11-26 13:00:00 16.1 3 Sudeste 39 Sur 0 956.8 -1.7 62
2019-11-26 12:00:00 16.3 4 Sur 34 Sur 0 957.4 -1.4 61
2019-11-26 11:00:00 15.2 2 Sudeste 32 Sur 0 958.1 -0.4 64
2019-11-26 10:00:00 14.6 6 Sudeste 38 Sur 0 958.5 -0.5 66
2019-11-26 09:00:00 13.5 0 Calma 36 Sudeste 0 958.8 -0.7 67
2019-11-26 08:00:00 13.5 6 Sudeste 35 Sur 0 958.5 -1.3 65
2019-11-26 07:00:00 12.9 2 Sudeste 27 Este 0 959 -1 64
2019-11-26 06:00:00 12.6 9 Sudeste 33 Sur 0 959.5 -0.7 64
2019-11-26 05:00:00 12.6 4 Sudoeste 32 Oeste 0 959.8 -0.7 63
2019-11-26 04:00:00 11.1 0 Calma 11 Sudoeste 0 960 -1.2 67
2019-11-26 03:00:00 12.1 0 Calma 19 Sur 0 960.2 -1.2 62
2019-11-26 02:00:00 11.5 0 Calma 26 Oeste 0 960.5 -1.3 67
2019-11-26 01:00:00 10.6 0 Calma 17 Sur 0 961.2 -1.3 79
2019-11-26 00:00:00 8.1 0 Calma 10 Noroeste 0 961.4 -1.4 99
2019-11-25 23:00:00 7.9 0 Calma 5 Oeste 0 961.8 -1.2 99
2019-11-25 22:00:00 8.6 0 Calma 0 Calma 0 962.5 -0.4 99
2019-11-25 21:00:00 9.5 0 Calma 0 Calma 0 962.8 0.2 99
2019-11-25 20:00:00 10.3 0 Calma 6 Sudeste 0 963 0.8 95
2019-11-25 19:00:00 10.8 0 Calma 4 Sudeste 0 962.9 1.2 93
2019-11-25 18:00:00 11 0 Calma 2 Sudeste 0 962.6 1.2 91
2019-11-25 17:00:00 11.9 0 Calma 7 Norte 0 962.2 1 86
2019-11-25 16:00:00 12.7 0 Calma 12 Noroeste 0 961.7 0.5 81
2019-11-25 15:00:00 12.8 4 Norte 21 Noroeste 0 961.4 0 78
2019-11-25 14:00:00 15.2 0 Calma 11 Noroeste 0 961.2 -0.2 65
2019-11-25 13:00:00 14 0 Calma 10 Noroeste 0 961.2 0.2 72
2019-11-25 12:00:00 13.5 0 Calma 10 Sudoeste 0 961.4 0.9 72
2019-11-25 11:00:00 13 0 Calma 8 Sur 0 961.4 1.4 73
2019-11-25 10:00:00 10.6 0 Calma 7 Sudeste 0 961 1.5 91
2019-11-25 09:00:00 9.2 0 Calma 4 Sur 0 960.5 1.8 91
2019-11-25 08:00:00 9.1 0 Calma 5 Sudoeste 0 960 1.4 91
2019-11-25 07:00:00 8.6 0 Calma 10 Oeste 0 959.5 0.6 94
2019-11-25 06:00:00 9.3 0 Calma 18 Sur 0 958.7 -0.2 86
2019-11-25 05:00:00 9.5 2 Sudeste 14 Oeste 0 958.6 -0.6 86
2019-11-25 04:00:00 8.1 0 Calma 5 Oeste 0 958.9 -0.6 96
2019-11-25 03:00:00 9 0 Calma 4 Sudeste 0 958.9 -0.8 91
2019-11-25 02:00:00 8.5 0 Calma 6 Nordeste 0.1 959.2 -0.1 95
2019-11-25 01:00:00 8.8 2 Este 14 Este 0 959.5 -0.5 94
2019-11-25 00:00:00 7.2 0 Calma 18 Sudeste 0 959.7 0.6 99
2019-11-24 23:00:00 7.7 7 Sudeste 14 Sudeste 1.9 959.3 0 96
2019-11-24 22:00:00 8.1 0 Calma 23 Oeste 0.4 960 0.2 88
2019-11-24 21:00:00 8.6 3 Sudeste 17 Este 0 959.1 -1 71
2019-11-24 20:00:00 8.7 6 Sudeste 16 Sudeste 0 959.3 -1.3 71
2019-11-24 19:00:00 7.2 0 Calma 12 Oeste 0 959.8 -1 80
2019-11-24 18:00:00 7.2 0 Calma 12 Oeste 0 960.1 -1.4 79
2019-11-24 17:00:00 7.6 0 Calma 6 Este 0 960.6 -1.3 96
2019-11-24 16:00:00 7.7 4 Sudeste 11 Sudeste 0 960.8 -1.6 98
2019-11-24 15:00:00 7.7 5 Este 11 Este 0 961.5 -1.5 99
2019-11-24 14:00:00 7.7 5 Sudeste 8 Este 0 961.9 -0.9 99
2019-11-24 13:00:00 6.9 0 Calma 5 Oeste 0 962.4 -0.2 99
2019-11-24 12:00:00 6.9 0 Calma 13 Oeste 0.6 963 1 99
2019-11-24 11:00:00 6.5 8 Oeste 15 Noroeste 0 962.8 1.3 99
2019-11-24 10:00:00 6.2 0 Calma 12 Noroeste 0.1 962.6 1.9 99
2019-11-24 09:00:00 5.8 7 Oeste 11 Oeste 0 962 1.7 99
2019-11-24 08:00:00 5.6 6 Oeste 18 Oeste 1 961.5 1.6 99
2019-11-24 07:00:00 5.8 10 Oeste 19 Oeste 1.1 960.7 1.3 99
2019-11-24 06:00:00 5.6 9 Oeste 17 Oeste 0.6 960.3 1.3 99
2019-11-24 05:00:00 5.5 8 Oeste 24 Oeste 0.9 959.9 0.8 99
2019-11-24 04:00:00 5.4 5 Oeste 17 Oeste 1.7 959.4 0.7 99
2019-11-24 03:00:00 5.2 6 Oeste 14 Oeste 3.7 959 0.9 99
2019-11-24 02:00:00 5.2 0 Calma 10 Oeste 4.7 959.1 1.2 99
2019-11-24 01:00:00 5.7 8 Oeste 33 Oeste 0.5 958.7 1.2 97
2019-11-24 00:00:00 5.7 9 Oeste 23 Oeste 0.5 958.1 1.3 99
2019-11-23 23:00:00 5.7 8 Oeste 22 Noroeste 0.6 957.9 2 99
2019-11-23 22:00:00 5.7 10 Oeste 25 Oeste 0.5 957.5 2.2 99
2019-11-23 21:00:00 5.9 12 Oeste 30 Noroeste 0.8 956.8 2.5 99
2019-11-23 20:00:00 6.3 17 Oeste 33 Oeste 0.3 955.9 3.2 98
2019-11-23 19:00:00 6.1 13 Oeste 32 Oeste 0.7 955.3 3 99
2019-11-23 18:00:00 6.2 18 Oeste 39 Oeste 3 954.3 3.5 99
2019-11-23 17:00:00 6.5 18 Oeste 40 Oeste 0.6 952.7 2.9 98
2019-11-23 16:00:00 6.5 22 Oeste 53 Oeste 2.8 952.3 3.1 97
2019-11-23 15:00:00 6.7 19 Oeste 41 Noroeste 1.6 950.8 2.3 94
2019-11-23 14:00:00 6.7 14 Oeste 37 Noroeste 1.4 949.8 2.9 99
2019-11-23 13:00:00 6 26 Oeste 57 Noroeste 3.9 949.2 4.4 99
2019-11-23 12:00:00 6.2 27 Oeste 47 Oeste 1.5 948.5 5.6 97
2019-11-23 11:00:00 5.8 23 Oeste 49 Oeste 2.6 946.9 5.7 98
2019-11-23 10:00:00 6 34 Oeste 62 Oeste 2.6 944.8 4.7 97
2019-11-23 09:00:00 6.5 31 Oeste 77 Oeste 3.9 942.9 4.2 96
2019-11-23 08:00:00 7.1 27 Oeste 66 Oeste 3.7 941.2 2.8 97
2019-11-23 07:00:00 6.3 5 Noroeste 36 Oeste 5.2 940.1 3.1 96
2019-11-23 06:00:00 6.7 6 Oeste 27 Oeste 2.8 938.7 2.3 93
2019-11-23 05:00:00 7 4 Noroeste 24 Oeste 4.1 938.4 2.6 91
2019-11-23 04:00:00 8.3 0 Calma 39 Oeste 0.9 937 1.2 78
2019-11-23 03:00:00 10 4 Noroeste 38 Oeste 0 936.4 0.3 61
2019-11-23 02:00:00 10.4 12 Oeste 48 Oeste 0 935.8 -0.6 61
2019-11-23 01:00:00 10.2 7 Noroeste 46 Oeste 0 935.8 -0.9 62
2019-11-23 00:00:00 10.7 5 Oeste 74 Noroeste 0 936.1 -0.6 62
2019-11-22 23:00:00 10.9 5 Oeste 55 Noroeste 0 936.4 -0.5 60
2019-11-22 22:00:00 11.1 5 Sudoeste 39 Sudoeste 0 936.7 -0.6 55
2019-11-22 21:00:00 10.4 5 Sudeste 28 Oeste 0.1 936.7 -0.9 68
2019-11-22 20:00:00 10.6 10 Sudeste 28 Sudeste 0 936.9 -0.5 73
2019-11-22 19:00:00 7.8 6 Sudeste 38 Sudeste 0.7 937.3 -0.5 97
2019-11-22 18:00:00 9.1 9 Sudeste 37 Sudeste 0 937.6 -1.6 84
2019-11-22 17:00:00 8.9 16 Sudeste 49 Sudeste 0 937.4 -2.7 86
2019-11-22 16:00:00 8.1 10 Sudeste 44 Este 1.2 937.8 -2.8 94
2019-11-22 15:00:00 8.1 12 Sudeste 44 Este 0.3 939.2 -3.2 88
2019-11-22 14:00:00 9.2 12 Sudeste 55 Sudeste 0 940.1 -3.3 73
2019-11-22 13:00:00 9.2 19 Sudeste 57 Sudeste 0 940.6 -4.6 70
2019-11-22 12:00:00 9.3 9 Sudeste 71 Este 0 942.4 -4.1 71
2019-11-22 11:00:00 8.6 18 Sudeste 53 Sudeste 0 943.4 -4.4 71
2019-11-22 10:00:00 8.4 11 Sudeste 69 Sudeste 0 945.2 -3.5 71
2019-11-22 09:00:00 8 12 Sudeste 41 Sudeste 0 946.5 -3.3 71
2019-11-22 08:00:00 7.9 16 Sudeste 51 Sudeste 0 947.8 -2.8 70
2019-11-22 07:00:00 7.5 15 Sudeste 32 Sudeste 0 948.7 -2.7 71
2019-11-22 06:00:00 7.2 5 Sudeste 31 Sudeste 0 949.8 -2.2 72
2019-11-22 05:00:00 7.3 4 Sudeste 23 Sudeste 0 950.6 -2.4 73
2019-11-22 04:00:00 6.7 3 Sudeste 25 Este 0 951.4 -2.7 75
2019-11-22 03:00:00 6.2 3 Sudeste 19 Este 0 952 -2.5 77
2019-11-22 02:00:00 6 3 Sudeste 14 Sudeste 0 953 -1.8 77
2019-11-22 01:00:00 6 2 Sudeste 10 Sudeste 0 954.1 -1.2 80
2019-11-22 00:00:00 5.5 0 Calma 7 Sudeste 0 954.5 -1.1 82
2019-11-21 23:00:00 5.3 0 Calma 8 Sudeste 0 954.8 -0.6 80
2019-11-21 22:00:00 5.2 0 Calma 9 Sur 0 955.3 0.1 78
2019-11-21 21:00:00 5.2 0 Calma 6 Oeste 0 955.6 0.6 79
2019-11-21 20:00:00 6.4 0 Calma 14 Sudeste 0 955.4 0.4 76
2019-11-21 19:00:00 6.8 0 Calma 7 Sudeste 0 955.2 0.5 71
2019-11-21 18:00:00 7.9 0 Calma 16 Sur 0 955 0.7 67
2019-11-21 17:00:00 9.1 2 Sudeste 19 Sur 0 955 0.6 60
2019-11-21 16:00:00 9.6 3 Sur 21 Sur 0 954.7 -0.2 58
2019-11-21 15:00:00 9.7 4 Sur 22 Sur 0 954.3 -0.4 59
2019-11-21 14:00:00 9.2 0 Calma 29 Sur 0 954.4 -0.7 64
2019-11-21 13:00:00 9.5 7 Oeste 32 Oeste 0 954.9 -0.3 61
2019-11-21 12:00:00 10.1 2 Sudeste 39 Sudoeste 0 954.7 -0.5 60
2019-11-21 11:00:00 8.9 3 Sur 30 Sur 0 955.1 0.4 63
2019-11-21 10:00:00 7.8 3 Sudeste 28 Sur 0 955.2 0.5 69
2019-11-21 09:00:00 6.8 3 Este 32 Sudeste 0 955.2 0.8 73
2019-11-21 08:00:00 7.5 9 Sudeste 34 Sur 0 954.7 -0.2 70
2019-11-21 07:00:00 6.7 6 Sudeste 29 Sudeste 0 954.7 -0.2 73
2019-11-21 06:00:00 5.8 5 Sudeste 26 Sur 0 954.4 -0.4 79
2019-11-21 05:00:00 5.7 10 Sudeste 22 Sudeste 0 954.9 -0.1 85
2019-11-21 04:00:00 5.5 8 Sudeste 24 Este 0 954.9 -0.2 84
2019-11-21 03:00:00 5.7 2 Sudeste 26 Sudeste 0 954.8 -0.7 83
2019-11-21 02:00:00 5.9 6 Sudeste 23 Sudeste 0 955 -1 80
2019-11-21 01:00:00 5.8 8 Sudeste 20 Sudeste 0 955.1 -0.9 81
2019-11-21 00:00:00 5.8 5 Sudeste 22 Este 0 955.5 -0.2 81
2019-11-20 23:00:00 6 3 Este 26 Sudeste 0 956 0.2 77
2019-11-20 22:00:00 6.6 10 Este 27 Sudeste 0 956 0.4 69
2019-11-20 21:00:00 6.8 3 Sudeste 15 Sudeste 0 955.7 0.2 67
2019-11-20 20:00:00 7.1 3 Este 28 Este 0 955.8 0.1 65
2019-11-20 19:00:00 7.4 10 Este 30 Sudeste 0 955.6 0.2 64
2019-11-20 18:00:00 7.3 0 Calma 26 Sudeste 0 955.5 -0.2 65
2019-11-20 17:00:00 7.5 6 Sudeste 27 Sudeste 0 955.7 -0.6 64
2019-11-20 16:00:00 8.2 4 Sudeste 19 Este 0 955.4 -1.8 61
2019-11-20 15:00:00 8.5 6 Sudeste 29 Sudeste 0 955.7 -2.4 58
2019-11-20 14:00:00 8.2 13 Sudeste 30 Sudeste 0 956.3 -2.2 58
2019-11-20 13:00:00 7.4 9 Sudeste 32 Este 0 957.2 -1.7 61
2019-11-20 12:00:00 6.5 8 Este 26 Sudeste 0 958.1 -0.9 67
2019-11-20 11:00:00 5.5 5 Sudeste 15 Sudeste 0 958.5 -0.4 78
2019-11-20 10:00:00 3.6 0 Calma 10 Sudeste 0 958.9 0 92
2019-11-20 09:00:00 2.4 0 Calma 2 Sur 0 959 -0.1 94
2019-11-20 08:00:00 2.1 0 Calma 4 Sudeste 0 958.9 -0.6 94
2019-11-20 07:00:00 2.2 0 Calma 9 Este 0 958.9 -1 92
2019-11-20 06:00:00 2.8 3 Este 9 Sudeste 0 959.1 -1.4 90
2019-11-20 05:00:00 2.9 0 Calma 9 Sudeste 0 959.5 -1.2 88
2019-11-20 04:00:00 3.2 2 Este 10 Sudeste 0 959.9 -1.4 88
2019-11-20 03:00:00 3 3 Sudeste 10 Sudeste 0 960.5 -1.4 91
2019-11-20 02:00:00 2.2 0 Calma 3 Sudeste 0 960.7 -1.6 99
2019-11-20 01:00:00 1.9 0 Calma 9 Sudoeste 0 961.3 -1.1 99
2019-11-20 00:00:00 1.8 0 Calma 13 Sudoeste 0 961.9 -0.5 99
2019-11-19 23:00:00 2 0 Calma 4 Sudoeste 0 962.3 -0.5 99
2019-11-19 22:00:00 2.1 0 Calma 5 Sudoeste 0 962.4 -0.4 99
2019-11-19 21:00:00 2.5 0 Calma 6 Sudoeste 0 962.4 -0.6 99
2019-11-19 20:00:00 2.7 0 Calma 6 Sudoeste 0 962.8 -0.3 97
2019-11-19 19:00:00 4.1 0 Calma 6 Sudoeste 0 962.8 -0.8 95
2019-11-19 18:00:00 5 0 Calma 6 Sur 0 963 -0.9 89
2019-11-19 17:00:00 6.5 0 Calma 5 Sur 0 963.1 -1.3 82
2019-11-19 16:00:00 7.6 0 Calma 6 Sudeste 0 963.6 -1.6 73
2019-11-19 15:00:00 7.5 2 Sudeste 10 Sudeste 0 963.9 -2.3 72
2019-11-19 14:00:00 8.1 0 Calma 7 Sudeste 0 964.4 -2.5 67
2019-11-19 13:00:00 7.5 0 Calma 8 Este 0 965.2 -1.9 71
2019-11-19 12:00:00 6.1 4 Este 8 Este 0 966.2 -0.6 96
2019-11-19 11:00:00 4.9 0 Calma 3 Este 0 966.9 0.2 99
2019-11-19 10:00:00 2.4 0 Calma 0 Calma 0 967.1 0.2 99
2019-11-19 09:00:00 0.9 0 Calma 9 Sudoeste 0 966.8 0.2 99
2019-11-19 08:00:00 0.6 0 Calma 8 Sudoeste 0 966.7 -0.1 99
2019-11-19 07:00:00 0.5 0 Calma 2 Este 0.1 966.9 -0.2 99
2019-11-19 06:00:00 0.6 0 Calma 7 Sudoeste 0 966.6 -0.7 99
2019-11-19 05:00:00 1.1 0 Calma 8 Sudoeste 0 966.8 -0.4 99
2019-11-19 04:00:00 1.6 0 Calma 5 Oeste 0 967.1 -0.6 99
2019-11-19 03:00:00 2.3 0 Calma 5 Este 0 967.3 -0.6 99
2019-11-19 02:00:00 2.9 0 Calma 4 Oeste 0 967.2 -0.6 99
2019-11-19 01:00:00 2.4 0 Calma 6 Sudoeste 0 967.7 -0.3 99
2019-11-19 00:00:00 2.3 0 Calma 8 Oeste 0 967.9 0 99
2019-11-18 23:00:00 1.9 2 Oeste 8 Oeste 0 967.8 0 99
2019-11-18 22:00:00 2.5 0 Calma 4 Noroeste 0 968 0.6 99
2019-11-18 21:00:00 3.4 0 Calma 4 Este 0.5 967.9 1.2 99
2019-11-18 20:00:00 4.5 0 Calma 8 Oeste 0 967.8 1.1 99
2019-11-18 19:00:00 4.6 2 Oeste 9 Oeste 0.1 967.4 1.2 96
2019-11-18 18:00:00 5.1 4 Noroeste 14 Oeste 0 966.7 0.9 88
2019-11-18 17:00:00 5.4 3 Oeste 14 Oeste 0 966.7 0.9 84
2019-11-18 16:00:00 5.7 5 Noroeste 19 Oeste 0 966.2 0.5 79
2019-11-18 15:00:00 5.5 4 Noroeste 23 Norte 0 965.8 0 78
2019-11-18 14:00:00 5.7 6 Noroeste 16 Noroeste 0 965.8 0.4 82
2019-11-18 13:00:00 6.1 0 Calma 13 Nordeste 0.1 965.7 1 85
2019-11-18 12:00:00 4.6 2 Norte 20 Nordeste 0.1 965.8 2.2 92
2019-11-18 11:00:00 5 0 Calma 16 Oeste 0.3 965.4 2.4 97
2019-11-18 10:00:00 4 3 Oeste 38 Oeste 2.5 964.7 2 97
2019-11-18 09:00:00 3.5 14 Oeste 27 Oeste 0.3 963.6 1.4 99
2019-11-18 08:00:00 3.7 5 Oeste 20 Oeste 0 963 1.6 97
2019-11-18 07:00:00 4.4 2 Noroeste 28 Noroeste 0 962.7 1.5 89
2019-11-18 06:00:00 4.5 10 Noroeste 25 Oeste 1.1 962.2 1.6 97
2019-11-18 05:00:00 4.3 12 Oeste 28 Oeste 0 961.4 1 94
2019-11-18 04:00:00 4.7 12 Noroeste 32 Noroeste 0.4 961.2 1.5 92
2019-11-18 03:00:00 4.7 13 Oeste 32 Oeste 0.3 960.6 1.4 99
2019-11-18 02:00:00 4.8 11 Noroeste 23 Noroeste 3.4 960.4 1.6 99
2019-11-18 01:00:00 4.7 7 Oeste 18 Oeste 2 959.7 1.5 99
2019-11-18 00:00:00 4.7 12 Oeste 21 Oeste 2.6 959.2 1.5 99
2019-11-17 23:00:00 4.8 8 Oeste 20 Noroeste 0.3 958.8 1.2 99
2019-11-17 22:00:00 4.9 5 Oeste 12 Oeste 1.4 958.2 0.8 99
2019-11-17 21:00:00 4.6 0 Calma 3 Sudoeste 0.2 957.7 0.1 99
2019-11-17 20:00:00 4.6 0 Calma 3 Sudoeste 0 957.6 -0.1 97
2019-11-17 19:00:00 5.7 0 Calma 14 Oeste 0 957.4 -0.3 93
2019-11-17 18:00:00 6.9 11 Oeste 22 Oeste 0 957.6 -0.4 83
2019-11-17 17:00:00 7.1 6 Oeste 20 Noroeste 0 957.7 -0.4 88
2019-11-17 16:00:00 6.8 10 Noroeste 30 Oeste 0.2 957.7 -0.9 94
2019-11-17 15:00:00 6.7 8 Noroeste 17 Oeste 0.2 958 -0.9 99
2019-11-17 14:00:00 6.9 0 Calma 13 Sur 0.4 958.1 -1.3 99
2019-11-17 13:00:00 5.8 3 Noroeste 19 Oeste 0.7 958.6 -1.2 99
2019-11-17 12:00:00 5.4 3 Sudeste 8 Este 0.4 958.9 -0.6 99
2019-11-17 11:00:00 4.6 0 Calma 6 Oeste 1.5 959.4 -0.2 99
2019-11-17 10:00:00 4.2 0 Calma 5 Oeste 0.9 959.8 -0.5 99
2019-11-17 09:00:00 3.7 0 Calma 6 Sudeste 0 959.5 -1.1 99
2019-11-17 08:00:00 3.5 0 Calma 4 Sudeste 0.3 959.6 -1.1 99
2019-11-17 07:00:00 3.7 0 Calma 6 Este 0.2 960.3 -0.9 99
2019-11-17 06:00:00 3.8 0 Calma 3 Sudeste 0.6 960.6 -0.9 99
2019-11-17 05:00:00 3.6 0 Calma 0 Calma 0.4 960.7 -1.2 99
2019-11-17 04:00:00 3.6 0 Calma 2 Oeste 0.6 961.2 -1.1 99
2019-11-17 03:00:00 3.6 0 Calma 3 Oeste 0.8 961.5 -1 99
2019-11-17 02:00:00 3.5 0 Calma 6 Oeste 0.1 961.9 -0.7 99
2019-11-17 01:00:00 3.7 0 Calma 6 Oeste 0.3 962.3 -0.2 99
2019-11-17 00:00:00 3.9 4 Oeste 18 Oeste 0.1 962.5 -0.2 98
2019-11-16 23:00:00 4.1 0 Calma 23 Oeste 0 962.6 0 95
2019-11-16 22:00:00 3.7 6 Oeste 17 Noroeste 0.1 962.5 0.1 98
2019-11-16 21:00:00 4 4 Oeste 22 Noroeste 0 962.7 1 97
2019-11-16 20:00:00 4.2 15 Oeste 31 Noroeste 0.4 962.6 0.7 96
2019-11-16 19:00:00 4.1 10 Oeste 33 Oeste 2 962.4 1.2 99
2019-11-16 18:00:00 4.2 7 Noroeste 31 Oeste 1.6 961.7 0.5 99
2019-11-16 17:00:00 4.2 9 Oeste 19 Noroeste 3.2 961.9 1.2 99
2019-11-16 16:00:00 4.2 8 Noroeste 17 Noroeste 1.1 961.2 0 99
2019-11-16 15:00:00 3.5 9 Noroeste 17 Noroeste 1.1 961.2 -0.1 99
2019-11-16 14:00:00 2.7 9 Noroeste 22 Noroeste 2 960.7 -0.3 99
2019-11-16 13:00:00 2.2 9 Noroeste 21 Noroeste 2.6 961.2 0.6 99
2019-11-16 12:00:00 2.2 11 Noroeste 25 Oeste 1.9 961.3 1.1 99
2019-11-16 11:00:00 2.2 10 Noroeste 22 Oeste 3 961 1.1 99
2019-11-16 10:00:00 2.1 0 Calma 3 Noroeste 0.8 960.6 1 99
2019-11-16 09:00:00 0.8 0 Calma 5 Sudeste 0.1 960.2 0.8 99
2019-11-16 08:00:00 0.4 0 Calma 5 Sudeste 0 959.9 0.6 99
2019-11-16 07:00:00 -0.1 2 Sudeste 5 Sudeste 0 959.6 0.4 99
2019-11-16 06:00:00 -0.3 0 Calma 9 Sudoeste 0 959.4 0.1 99
2019-11-16 05:00:00 -0.3 2 Sudoeste 9 Sudoeste 0 959.3 0.8 99
2019-11-16 04:00:00 -0.2 0 Calma 9 Noroeste 0.1 959.2 1 99
2019-11-16 03:00:00 0 0 Calma 11 Sudoeste 0 959.3 1.5 99
2019-11-16 02:00:00 0.1 0 Calma 7 Oeste 0 958.5 1.2 99
2019-11-16 01:00:00 0.3 0 Calma 5 Noroeste 0 958.2 1.3 99
2019-11-16 00:00:00 0.9 0 Calma 9 Oeste 0 957.8 1.4 99
2019-11-15 23:00:00 1.2 2 Oeste 11 Oeste 0 957.3 1.6 99
2019-11-15 22:00:00 1.6 0 Calma 11 Oeste 0 956.9 2.4 99
2019-11-15 21:00:00 2.3 0 Calma 13 Noroeste 0.1 956.4 2.6 99
2019-11-15 20:00:00 2.4 5 Oeste 21 Oeste 0.1 955.7 2.4 99
2019-11-15 19:00:00 2.7 13 Oeste 27 Oeste 0.5 954.5 1.6 99
2019-11-15 18:00:00 2.9 8 Oeste 20 Oeste 0 953.8 1.4 99
2019-11-15 17:00:00 3.2 9 Oeste 26 Oeste 0.4 953.3 1.6 99
2019-11-15 16:00:00 3.4 0 Calma 12 Sur 0 952.9 1.1 99
2019-11-15 15:00:00 3.7 0 Calma 27 Oeste 2.5 952.4 0.9 94
2019-11-15 14:00:00 6.1 7 Noroeste 27 Norte 0 951.7 1.7 80
2019-11-15 13:00:00 5.4 10 Noroeste 32 Oeste 0.4 951.8 3 88
2019-11-15 12:00:00 4.7 12 Oeste 35 Oeste 1.5 951.5 2.8 99
2019-11-15 11:00:00 3.3 9 Oeste 31 Oeste 3.1 950 1.1 99
2019-11-15 10:00:00 3.1 12 Noroeste 32 Noroeste 1.1 948.8 0 99
2019-11-15 09:00:00 2.7 8 Noroeste 23 Noroeste 0.6 948.7 0.3 99
2019-11-15 08:00:00 2.2 9 Noroeste 19 Oeste 1.7 948.9 0.2 99
2019-11-15 07:00:00 2.3 11 Oeste 21 Oeste 1.3 948.8 -0.4 97
2019-11-15 06:00:00 2.5 8 Noroeste 27 Oeste 0.8 948.4 -1.1 95
2019-11-15 05:00:00 3.1 12 Noroeste 24 Oeste 0.3 948.7 -1.1 92
2019-11-15 04:00:00 2.9 3 Noroeste 14 Noroeste 0.1 949.2 -0.8 89
2019-11-15 03:00:00 2.8 0 Calma 7 Sudeste 0 949.5 -0.2 94
2019-11-15 02:00:00 2.9 0 Calma 5 Noroeste 0 949.8 0 94
2019-11-15 01:00:00 3.1 0 Calma 12 Noroeste 0 950 0.7 93
2019-11-15 00:00:00 3.2 0 Calma 19 Oeste 0 949.7 0.9 92
2019-11-14 23:00:00 3.6 12 Oeste 18 Oeste 0 949.8 1.3 92
2019-11-14 22:00:00 3.6 10 Oeste 22 Oeste 0.1 949.3 1.5 94
2019-11-14 21:00:00 3.8 8 Oeste 20 Oeste 0 948.8 1.9 93
2019-11-14 20:00:00 4.5 13 Oeste 21 Oeste 0 948.5 1.8 90
2019-11-14 19:00:00 5.1 0 Calma 19 Oeste 0 947.8 0.9 92
2019-11-14 18:00:00 5 0 Calma 8 Oeste 0 946.9 -0.4 79
2019-11-14 17:00:00 6.5 0 Calma 8 Noroeste 0 946.7 -1.2 65
2019-11-14 16:00:00 6.9 0 Calma 13 Oeste 0 946.9 -1.7 60
2019-11-14 15:00:00 7.5 0 Calma 14 Oeste 0 947.3 -1.9 56
2019-11-14 14:00:00 7.7 4 Sur 21 Sur 0 947.9 -2.4 58
2019-11-14 13:00:00 7 3 Sur 21 Noroeste 0 948.6 -2.1 64
2019-11-14 12:00:00 6.4 0 Calma 20 Oeste 0 949.2 -2.1 74
2019-11-14 11:00:00 4.1 0 Calma 12 Este 0 950.3 -1.4 99
2019-11-14 10:00:00 2.6 5 Sudeste 11 Sudeste 0 950.7 -1.1 99
2019-11-14 09:00:00 1.3 5 Sudeste 9 Sudeste 0 951.3 -1.3 99
2019-11-14 08:00:00 1.1 0 Calma 8 Sudeste 0.2 951.7 -1.1 99
2019-11-14 07:00:00 1.9 0 Calma 17 Sur 0.3 951.8 -1 99
2019-11-14 06:00:00 1.7 6 Oeste 33 Oeste 3.6 952.6 -0.6 99
2019-11-14 05:00:00 2.3 17 Oeste 41 Oeste 4.2 952.8 -0.2 99
2019-11-14 04:00:00 3.4 15 Noroeste 37 Oeste 3.8 952.8 -0.4 99
2019-11-14 03:00:00 4.4 17 Oeste 46 Noroeste 6.1 953.2 -0.4 98
2019-11-14 02:00:00 6.1 14 Oeste 41 Noroeste 2.2 953 -1.7 97
2019-11-14 01:00:00 7.8 11 Noroeste 30 Noroeste 0 953.2 -1.9 87
2019-11-14 00:00:00 5.6 2 Sudeste 6 Este 0 953.6 -3.8 99
2019-11-13 23:00:00 5.8 0 Calma 7 Noroeste 0 954.7 -3.2 99
2019-11-13 22:00:00 5.9 0 Calma 6 Nordeste 0 955.1 -3.5 99
2019-11-13 21:00:00 6.3 0 Calma 7 Noroeste 0 957.4 -2.4 99
2019-11-13 20:00:00 6 0 Calma 0 Calma 0 957.9 -2.3 99
2019-11-13 19:00:00 6.2 0 Calma 3 Sudeste 0 958.6 -2.3 97
2019-11-13 18:00:00 7.2 0 Calma 9 Noroeste 0 959.8 -1.5 94
2019-11-13 17:00:00 7.6 3 Oeste 13 Oeste 0 960.2 -1 93
2019-11-13 16:00:00 7.7 8 Oeste 26 Oeste 0.3 960.9 -0.6 93
2019-11-13 15:00:00 8.4 12 Oeste 25 Noroeste 0 961.3 -0.2 85
2019-11-13 14:00:00 9.4 10 Noroeste 23 Oeste 0 961.2 0 76
2019-11-13 13:00:00 9 10 Noroeste 39 Oeste 0.1 961.5 0.9 76
2019-11-13 12:00:00 8.4 18 Noroeste 34 Oeste 0.7 961.5 1.9 90
2019-11-13 11:00:00 7.6 12 Oeste 23 Oeste 2.1 961.2 2.5 99
2019-11-13 10:00:00 7.3 0 Calma 7 Noroeste 0.7 960.6 3.1 99
2019-11-13 09:00:00 7.3 0 Calma 16 Noroeste 0.4 959.6 3.7 99
2019-11-13 08:00:00 7.1 3 Noroeste 25 Nordeste 0.6 958.7 3.3 99
2019-11-13 07:00:00 7 9 Noroeste 29 Noroeste 4.5 957.5 2.2 99
2019-11-13 06:00:00 6.5 0 Calma 8 Oeste 0.4 955.9 1 99
2019-11-13 05:00:00 6.5 0 Calma 9 Oeste 1.9 955.4 0.4 99
2019-11-13 04:00:00 6.5 0 Calma 0 Calma 1.4 955.3 0.3 99
2019-11-13 03:00:00 6.3 0 Calma 4 Sudeste 0 954.9 -0.4 99
2019-11-13 02:00:00 6.2 0 Calma 0 Calma 0.2 955 -1.5 99
2019-11-13 01:00:00 6.3 0 Calma 6 Sudeste 0 955 -2.2 99
2019-11-13 00:00:00 6.5 3 Sudeste 6 Sudeste 0.1 955.3 -2.8 98
2019-11-12 23:00:00 6.5 0 Calma 0 Calma 0.3 956.5 -2.1 98
2019-11-12 22:00:00 6.9 0 Calma 6 Sudeste 0.1 957.2 -1.7 97
2019-11-12 21:00:00 7 0 Calma 7 Sur 0.7 958.1 -1.5 98
2019-11-12 20:00:00 7 0 Calma 2 Sur 0.2 958.6 -1.4 98
2019-11-12 19:00:00 7.2 0 Calma 3 Este 0.1 958.9 -2.1 95
2019-11-12 18:00:00 7.6 0 Calma 4 Noroeste 0 959.6 -2.1 91
2019-11-12 17:00:00 8.5 0 Calma 10 Oeste 0 960 -2.3 84
2019-11-12 16:00:00 9.1 6 Oeste 23 Noroeste 0 961 -2.1 76
2019-11-12 15:00:00 9.1 10 Oeste 24 Noroeste 0 961.7 -2.5 77
2019-11-12 14:00:00 8.8 12 Oeste 30 Oeste 0 962.3 -2.3 82
2019-11-12 13:00:00 8.4 16 Oeste 29 Oeste 0 963.1 -1.7 88
2019-11-12 12:00:00 7.6 10 Oeste 22 Noroeste 0 964.2 -0.5 94
2019-11-12 11:00:00 6.5 8 Oeste 20 Oeste 0.3 964.6 -0.1 99
2019-11-12 10:00:00 6 5 Oeste 17 Oeste 0.6 964.8 0 99
2019-11-12 09:00:00 5.6 10 Oeste 21 Oeste 0.3 964.7 -0.5 99
2019-11-12 08:00:00 5.6 10 Oeste 19 Oeste 0.3 964.7 -0.7 99
2019-11-12 07:00:00 5.4 11 Oeste 18 Oeste 0 964.8 -0.9 99
2019-11-12 06:00:00 5.5 8 Oeste 21 Oeste 0.8 965.2 -0.9 99
2019-11-12 05:00:00 5.3 13 Oeste 21 Oeste 0.4 965.4 -1.1 99
2019-11-12 04:00:00 5.3 7 Oeste 15 Oeste 0.6 965.7 -1.5 99
2019-11-12 03:00:00 5.3 9 Oeste 17 Oeste 0.3 966.1 -1.6 99
2019-11-12 02:00:00 5.2 9 Oeste 40 Oeste 0.1 966.5 -1.4 99
2019-11-12 01:00:00 4.8 10 Oeste 19 Oeste 0 967.2 -0.8 99
2019-11-12 00:00:00 4.5 6 Oeste 14 Oeste 0 967.7 0 98
2019-11-11 23:00:00 4.5 6 Oeste 15 Oeste 0 967.9 0.2 97
2019-11-11 22:00:00 4.9 9 Oeste 36 Oeste 0.1 968 0.6 92
2019-11-11 21:00:00 6.5 15 Oeste 44 Oeste 0.4 967.7 0.9 82
2019-11-11 20:00:00 6.2 15 Oeste 33 Oeste 0 967.7 1.2 91
2019-11-11 19:00:00 6.3 14 Oeste 39 Oeste 0.3 967.4 1 91
2019-11-11 18:00:00 7.5 19 Oeste 68 Noroeste 0 966.8 1 73
2019-11-11 17:00:00 7.3 13 Oeste 42 Oeste 0 966.5 2 82
2019-11-11 16:00:00 7 18 Oeste 45 Oeste 1.2 966.4 2.2 90
2019-11-11 15:00:00 6.8 19 Oeste 54 Oeste 0.2 965.8 2.1 89
2019-11-11 14:00:00 7.6 23 Oeste 57 Oeste 1.6 964.5 0.8 99
2019-11-11 13:00:00 6.5 12 Oeste 21 Oeste 1.9 964.2 0.2 99
2019-11-11 12:00:00 5.6 0 Calma 7 Este 1.9 963.7 -0.6 99
2019-11-11 11:00:00 5.2 0 Calma 6 Sudeste 1.2 963.7 -0.5 99
2019-11-11 10:00:00 4.9 0 Calma 3 Sudeste 0.2 964 -0.2 99
2019-11-11 09:00:00 4.3 0 Calma 2 Este 0 964.3 -1 99
2019-11-11 08:00:00 4 0 Calma 6 Sudeste 0 964.2 -1.5 99
2019-11-11 07:00:00 3.8 0 Calma 4 Sudeste 0.1 964.2 -1.9 99
2019-11-11 06:00:00 3.9 0 Calma 6 Oeste 0.6 965.3 -1.1 99
2019-11-11 05:00:00 4 0 Calma 8 Oeste 0.6 965.7 -1 99
2019-11-11 04:00:00 3.6 0 Calma 8 Oeste 0.3 966.1 -0.9 99
2019-11-11 03:00:00 3.1 0 Calma 0 Calma 0 966.4 -0.8 99
2019-11-11 02:00:00 2.9 0 Calma 7 Oeste 0.5 966.7 -0.1 99
2019-11-11 01:00:00 2 0 Calma 6 Oeste 0 967 0.1 99
2019-11-11 00:00:00 2.8 0 Calma 0 Calma 0 967.2 0.2 99